sensor_id;sensor_type;location;lat;lon;timestamp;P1;durP1;ratioP1;P2;durP2;ratioP2
70426;SDS011;57872;55.432;37.248;2022-11-15T00:05:07;5.97;;;1.77;;
70426;SDS011;57872;55.432;37.248;2022-11-15T00:10:27;5.47;;;1.40;;
70426;SDS011;57872;55.432;37.248;2022-11-15T00:16:00;5.27;;;1.40;;
70426;SDS011;57872;55.432;37.248;2022-11-15T00:22:15;4.93;;;1.37;;
70426;SDS011;57872;55.432;37.248;2022-11-15T00:27:42;4.17;;;1.27;;
70426;SDS011;57872;55.432;37.248;2022-11-15T00:33:39;6.50;;;1.77;;
70426;SDS011;57872;55.432;37.248;2022-11-15T00:39:11;6.47;;;1.50;;
70426;SDS011;57872;55.432;37.248;2022-11-15T00:44:37;4.77;;;1.67;;
70426;SDS011;57872;55.432;37.248;2022-11-15T00:50:10;6.10;;;1.50;;
70426;SDS011;57872;55.432;37.248;2022-11-15T00:56:02;5.90;;;1.80;;
70426;SDS011;57872;55.432;37.248;2022-11-15T01:01:22;6.57;;;1.70;;
70426;SDS011;57872;55.432;37.248;2022-11-15T01:06:45;5.20;;;1.50;;
70426;SDS011;57872;55.432;37.248;2022-11-15T01:12:04;5.83;;;1.50;;
70426;SDS011;57872;55.432;37.248;2022-11-15T01:17:24;5.53;;;1.63;;
70426;SDS011;57872;55.432;37.248;2022-11-15T01:22:43;5.87;;;1.90;;
70426;SDS011;57872;55.432;37.248;2022-11-15T01:28:03;5.27;;;1.40;;
70426;SDS011;57872;55.432;37.248;2022-11-15T01:33:22;6.73;;;1.60;;
70426;SDS011;57872;55.432;37.248;2022-11-15T01:38:42;3.97;;;1.50;;
70426;SDS011;57872;55.432;37.248;2022-11-15T01:50:13;7.30;;;1.70;;
70426;SDS011;57872;55.432;37.248;2022-11-15T01:55:34;6.10;;;1.50;;
70426;SDS011;57872;55.432;37.248;2022-11-15T02:00:54;7.17;;;1.70;;
70426;SDS011;57872;55.432;37.248;2022-11-15T02:06:13;9.00;;;1.57;;
70426;SDS011;57872;55.432;37.248;2022-11-15T02:23:35;4.93;;;1.47;;
70426;SDS011;57872;55.432;37.248;2022-11-15T02:47:14;6.97;;;1.30;;
70426;SDS011;57872;55.432;37.248;2022-11-15T02:52:48;3.47;;;1.53;;
70426;SDS011;57872;55.432;37.248;2022-11-15T03:04:04;7.40;;;1.30;;
70426;SDS011;57872;55.432;37.248;2022-11-15T03:21:17;6.83;;;1.87;;
70426;SDS011;57872;55.432;37.248;2022-11-15T03:26:38;5.50;;;1.63;;
70426;SDS011;57872;55.432;37.248;2022-11-15T03:32:20;5.00;;;1.90;;
70426;SDS011;57872;55.432;37.248;2022-11-15T03:43:41;5.37;;;1.80;;
70426;SDS011;57872;55.432;37.248;2022-11-15T03:49:21;6.27;;;1.60;;
70426;SDS011;57872;55.432;37.248;2022-11-15T03:54:53;5.10;;;1.40;;
70426;SDS011;57872;55.432;37.248;2022-11-15T04:00:28;4.43;;;1.33;;
70426;SDS011;57872;55.432;37.248;2022-11-15T04:05:55;6.60;;;1.63;;
70426;SDS011;57872;55.432;37.248;2022-11-15T04:11:15;5.97;;;1.60;;
70426;SDS011;57872;55.432;37.248;2022-11-15T04:16:47;7.10;;;1.80;;
70426;SDS011;57872;55.432;37.248;2022-11-15T04:22:14;8.03;;;1.83;;
70426;SDS011;57872;55.432;37.248;2022-11-15T04:27:52;7.00;;;1.90;;
70426;SDS011;57872;55.432;37.248;2022-11-15T04:33:33;4.90;;;1.80;;
70426;SDS011;57872;55.432;37.248;2022-11-15T04:38:52;7.83;;;2.40;;
70426;SDS011;57872;55.432;37.248;2022-11-15T04:44:11;6.13;;;1.80;;
70426;SDS011;57872;55.432;37.248;2022-11-15T04:49:34;7.30;;;1.60;;
70426;SDS011;57872;55.432;37.248;2022-11-15T04:55:04;5.70;;;1.50;;
70426;SDS011;57872;55.432;37.248;2022-11-15T05:00:23;6.70;;;2.47;;
70426;SDS011;57872;55.432;37.248;2022-11-15T05:05:57;5.67;;;1.77;;
70426;SDS011;57872;55.432;37.248;2022-11-15T05:12:10;6.17;;;1.73;;
70426;SDS011;57872;55.432;37.248;2022-11-15T05:17:25;6.67;;;1.90;;
70426;SDS011;57872;55.432;37.248;2022-11-15T05:22:59;9.77;;;1.80;;
70426;SDS011;57872;55.432;37.248;2022-11-15T05:28:41;10.53;;;1.77;;
70426;SDS011;57872;55.432;37.248;2022-11-15T05:34:26;6.87;;;2.00;;
70426;SDS011;57872;55.432;37.248;2022-11-15T05:40:07;5.37;;;1.80;;
70426;SDS011;57872;55.432;37.248;2022-11-15T05:45:35;6.77;;;2.07;;
70426;SDS011;57872;55.432;37.248;2022-11-15T05:50:58;8.97;;;2.10;;
70426;SDS011;57872;55.432;37.248;2022-11-15T05:56:21;6.97;;;2.27;;
70426;SDS011;57872;55.432;37.248;2022-11-15T06:01:40;6.00;;;2.03;;
70426;SDS011;57872;55.432;37.248;2022-11-15T06:07:00;8.13;;;2.03;;
70426;SDS011;57872;55.432;37.248;2022-11-15T06:12:19;7.27;;;1.70;;
70426;SDS011;57872;55.432;37.248;2022-11-15T06:17:39;8.33;;;2.00;;
70426;SDS011;57872;55.432;37.248;2022-11-15T06:22:59;7.43;;;2.10;;
70426;SDS011;57872;55.432;37.248;2022-11-15T06:28:19;9.83;;;2.20;;
70426;SDS011;57872;55.432;37.248;2022-11-15T06:33:38;8.60;;;2.03;;
70426;SDS011;57872;55.432;37.248;2022-11-15T06:38:58;7.77;;;2.27;;
70426;SDS011;57872;55.432;37.248;2022-11-15T06:44:17;7.47;;;1.70;;
70426;SDS011;57872;55.432;37.248;2022-11-15T06:49:36;8.87;;;1.80;;
70426;SDS011;57872;55.432;37.248;2022-11-15T06:54:55;5.93;;;1.83;;
70426;SDS011;57872;55.432;37.248;2022-11-15T07:00:16;7.13;;;1.80;;
70426;SDS011;57872;55.432;37.248;2022-11-15T07:05:36;8.97;;;2.27;;
70426;SDS011;57872;55.432;37.248;2022-11-15T07:11:04;7.90;;;1.97;;
70426;SDS011;57872;55.432;37.248;2022-11-15T07:16:44;5.70;;;2.00;;
70426;SDS011;57872;55.432;37.248;2022-11-15T07:22:03;5.23;;;1.67;;
70426;SDS011;57872;55.432;37.248;2022-11-15T07:27:23;5.00;;;1.70;;
70426;SDS011;57872;55.432;37.248;2022-11-15T07:32:42;7.90;;;1.80;;
70426;SDS011;57872;55.432;37.248;2022-11-15T07:38:01;6.50;;;1.90;;
70426;SDS011;57872;55.432;37.248;2022-11-15T07:43:21;6.43;;;1.77;;
70426;SDS011;57872;55.432;37.248;2022-11-15T07:48:48;5.60;;;1.60;;
70426;SDS011;57872;55.432;37.248;2022-11-15T07:54:10;5.47;;;1.70;;
70426;SDS011;57872;55.432;37.248;2022-11-15T07:59:29;7.77;;;1.83;;
70426;SDS011;57872;55.432;37.248;2022-11-15T08:04:48;7.50;;;2.10;;
70426;SDS011;57872;55.432;37.248;2022-11-15T08:10:07;4.67;;;1.70;;
70426;SDS011;57872;55.432;37.248;2022-11-15T08:15:27;9.40;;;1.73;;
70426;SDS011;57872;55.432;37.248;2022-11-15T08:20:49;7.77;;;1.87;;
70426;SDS011;57872;55.432;37.248;2022-11-15T08:26:12;6.33;;;1.73;;
70426;SDS011;57872;55.432;37.248;2022-11-15T08:31:39;8.23;;;1.90;;
70426;SDS011;57872;55.432;37.248;2022-11-15T08:37:00;6.40;;;1.73;;
70426;SDS011;57872;55.432;37.248;2022-11-15T08:42:20;6.27;;;1.90;;
70426;SDS011;57872;55.432;37.248;2022-11-15T08:47:39;4.90;;;1.53;;
70426;SDS011;57872;55.432;37.248;2022-11-15T08:53:03;7.63;;;1.83;;
70426;SDS011;57872;55.432;37.248;2022-11-15T08:58:24;8.40;;;1.90;;
70426;SDS011;57872;55.432;37.248;2022-11-15T09:03:48;10.10;;;2.03;;
70426;SDS011;57872;55.432;37.248;2022-11-15T09:09:08;9.40;;;2.40;;
70426;SDS011;57872;55.432;37.248;2022-11-15T09:14:27;6.27;;;1.53;;
70426;SDS011;57872;55.432;37.248;2022-11-15T09:19:46;6.67;;;2.03;;
70426;SDS011;57872;55.432;37.248;2022-11-15T09:25:05;7.13;;;2.03;;
70426;SDS011;57872;55.432;37.248;2022-11-15T09:30:25;5.83;;;2.07;;
70426;SDS011;57872;55.432;37.248;2022-11-15T09:35:45;6.33;;;2.07;;
70426;SDS011;57872;55.432;37.248;2022-11-15T09:52:46;6.83;;;2.17;;
70426;SDS011;57872;55.432;37.248;2022-11-15T09:58:04;9.80;;;2.30;;
70426;SDS011;57872;55.432;37.248;2022-11-15T10:03:30;8.17;;;2.37;;
70426;SDS011;57872;55.432;37.248;2022-11-15T10:09:44;6.00;;;1.87;;
70426;SDS011;57872;55.432;37.248;2022-11-15T10:14:35;7.77;;;1.70;;
70426;SDS011;57872;55.432;37.248;2022-11-15T10:29:43;6.27;;;1.73;;
70426;SDS011;57872;55.432;37.248;2022-11-15T10:34:50;6.27;;;1.63;;
70426;SDS011;57872;55.432;37.248;2022-11-15T10:40:06;10.27;;;1.97;;
70426;SDS011;57872;55.432;37.248;2022-11-15T10:45:36;7.97;;;2.10;;
70426;SDS011;57872;55.432;37.248;2022-11-15T10:50:44;8.20;;;2.37;;
70426;SDS011;57872;55.432;37.248;2022-11-15T10:55:47;8.87;;;2.20;;
70426;SDS011;57872;55.432;37.248;2022-11-15T11:01:02;6.60;;;1.70;;
70426;SDS011;57872;55.432;37.248;2022-11-15T11:06:20;6.70;;;1.80;;
70426;SDS011;57872;55.432;37.248;2022-11-15T11:11:21;5.77;;;1.70;;
70426;SDS011;57872;55.432;37.248;2022-11-15T11:43:58;6.53;;;2.03;;
70426;SDS011;57872;55.432;37.248;2022-11-15T11:55:00;6.20;;;2.20;;
70426;SDS011;57872;55.432;37.248;2022-11-15T12:00:22;8.20;;;2.50;;
70426;SDS011;57872;55.432;37.248;2022-11-15T12:05:30;9.97;;;3.43;;
70426;SDS011;57872;55.432;37.248;2022-11-15T12:10:34;6.53;;;2.57;;
70426;SDS011;57872;55.432;37.248;2022-11-15T12:15:38;7.63;;;2.53;;
70426;SDS011;57872;55.432;37.248;2022-11-15T12:20:47;8.27;;;2.63;;
70426;SDS011;57872;55.432;37.248;2022-11-15T12:26:18;9.73;;;3.80;;
70426;SDS011;57872;55.432;37.248;2022-11-15T12:31:41;8.30;;;2.67;;
70426;SDS011;57872;55.432;37.248;2022-11-15T12:36:45;6.27;;;2.10;;
70426;SDS011;57872;55.432;37.248;2022-11-15T12:52:29;6.70;;;2.80;;
70426;SDS011;57872;55.432;37.248;2022-11-15T12:57:40;5.90;;;2.77;;
70426;SDS011;57872;55.432;37.248;2022-11-15T13:03:19;7.50;;;2.70;;
70426;SDS011;57872;55.432;37.248;2022-11-15T13:08:40;8.67;;;2.67;;
70426;SDS011;57872;55.432;37.248;2022-11-15T13:14:11;8.53;;;2.73;;
70426;SDS011;57872;55.432;37.248;2022-11-15T13:20:02;8.80;;;4.03;;
70426;SDS011;57872;55.432;37.248;2022-11-15T13:30:38;11.60;;;2.77;;
70426;SDS011;57872;55.432;37.248;2022-11-15T13:35:39;8.73;;;3.07;;
70426;SDS011;57872;55.432;37.248;2022-11-15T13:40:40;8.20;;;3.03;;
70426;SDS011;57872;55.432;37.248;2022-11-15T13:45:41;8.70;;;3.60;;
70426;SDS011;57872;55.432;37.248;2022-11-15T13:50:42;8.93;;;3.50;;
70426;SDS011;57872;55.432;37.248;2022-11-15T13:55:43;10.10;;;3.53;;
70426;SDS011;57872;55.432;37.248;2022-11-15T14:00:44;10.40;;;3.33;;
70426;SDS011;57872;55.432;37.248;2022-11-15T14:06:08;7.90;;;3.13;;
70426;SDS011;57872;55.432;37.248;2022-11-15T14:11:30;9.30;;;3.57;;
70426;SDS011;57872;55.432;37.248;2022-11-15T14:16:35;11.03;;;3.90;;
70426;SDS011;57872;55.432;37.248;2022-11-15T14:27:25;13.93;;;4.60;;
70426;SDS011;57872;55.432;37.248;2022-11-15T14:32:56;12.53;;;4.43;;
70426;SDS011;57872;55.432;37.248;2022-11-15T14:38:16;11.60;;;5.00;;
70426;SDS011;57872;55.432;37.248;2022-11-15T14:43:17;16.00;;;4.50;;
70426;SDS011;57872;55.432;37.248;2022-11-15T14:48:18;13.97;;;5.10;;
70426;SDS011;57872;55.432;37.248;2022-11-15T14:53:22;10.47;;;5.00;;
70426;SDS011;57872;55.432;37.248;2022-11-15T15:04:05;11.33;;;4.63;;
70426;SDS011;57872;55.432;37.248;2022-11-15T15:09:31;15.13;;;5.30;;
70426;SDS011;57872;55.432;37.248;2022-11-15T15:15:33;12.20;;;5.43;;
70426;SDS011;57872;55.432;37.248;2022-11-15T15:20:38;13.27;;;5.60;;
70426;SDS011;57872;55.432;37.248;2022-11-15T15:25:46;14.60;;;5.37;;
70426;SDS011;57872;55.432;37.248;2022-11-15T15:30:49;16.90;;;5.97;;
70426;SDS011;57872;55.432;37.248;2022-11-15T15:35:50;14.20;;;5.20;;
70426;SDS011;57872;55.432;37.248;2022-11-15T15:40:51;13.07;;;5.70;;
70426;SDS011;57872;55.432;37.248;2022-11-15T15:52:09;14.90;;;5.90;;
70426;SDS011;57872;55.432;37.248;2022-11-15T15:57:16;15.47;;;6.20;;
70426;SDS011;57872;55.432;37.248;2022-11-15T16:02:35;13.70;;;5.67;;
70426;SDS011;57872;55.432;37.248;2022-11-15T16:07:36;11.40;;;5.70;;
70426;SDS011;57872;55.432;37.248;2022-11-15T16:12:40;13.43;;;4.87;;
70426;SDS011;57872;55.432;37.248;2022-11-15T16:17:50;15.10;;;5.77;;
70426;SDS011;57872;55.432;37.248;2022-11-15T16:23:27;15.37;;;5.70;;
70426;SDS011;57872;55.432;37.248;2022-11-15T16:28:28;11.40;;;5.53;;
70426;SDS011;57872;55.432;37.248;2022-11-15T16:38:32;15.00;;;4.90;;
70426;SDS011;57872;55.432;37.248;2022-11-15T16:43:33;11.67;;;4.53;;
70426;SDS011;57872;55.432;37.248;2022-11-15T16:48:33;13.10;;;5.07;;
70426;SDS011;57872;55.432;37.248;2022-11-15T16:53:37;12.70;;;4.90;;
70426;SDS011;57872;55.432;37.248;2022-11-15T16:58:42;12.13;;;5.03;;
70426;SDS011;57872;55.432;37.248;2022-11-15T17:04:05;16.13;;;5.60;;
70426;SDS011;57872;55.432;37.248;2022-11-15T17:09:16;14.07;;;5.43;;
70426;SDS011;57872;55.432;37.248;2022-11-15T17:14:20;14.00;;;5.43;;
70426;SDS011;57872;55.432;37.248;2022-11-15T17:19:21;13.67;;;5.03;;
70426;SDS011;57872;55.432;37.248;2022-11-15T17:24:25;18.33;;;5.93;;
70426;SDS011;57872;55.432;37.248;2022-11-15T17:29:33;11.63;;;4.90;;
70426;SDS011;57872;55.432;37.248;2022-11-15T17:34:40;12.83;;;5.13;;
70426;SDS011;57872;55.432;37.248;2022-11-15T17:40:13;13.63;;;4.77;;
70426;SDS011;57872;55.432;37.248;2022-11-15T17:45:14;12.00;;;4.50;;
70426;SDS011;57872;55.432;37.248;2022-11-15T17:50:18;12.70;;;4.78;;
70426;SDS011;57872;55.432;37.248;2022-11-15T17:55:18;11.30;;;5.13;;
70426;SDS011;57872;55.432;37.248;2022-11-15T18:00:19;14.07;;;4.87;;
70426;SDS011;57872;55.432;37.248;2022-11-15T18:05:20;10.33;;;4.90;;
70426;SDS011;57872;55.432;37.248;2022-11-15T18:10:21;13.17;;;5.13;;
70426;SDS011;57872;55.432;37.248;2022-11-15T18:15:23;12.80;;;4.90;;
70426;SDS011;57872;55.432;37.248;2022-11-15T18:20:24;11.83;;;5.07;;
70426;SDS011;57872;55.432;37.248;2022-11-15T18:25:25;10.90;;;4.87;;
70426;SDS011;57872;55.432;37.248;2022-11-15T18:30:26;10.63;;;4.70;;
70426;SDS011;57872;55.432;37.248;2022-11-15T18:35:30;15.73;;;6.57;;
70426;SDS011;57872;55.432;37.248;2022-11-15T18:40:30;11.43;;;4.53;;
70426;SDS011;57872;55.432;37.248;2022-11-15T18:45:34;11.47;;;4.63;;
70426;SDS011;57872;55.432;37.248;2022-11-15T18:55:36;14.53;;;4.83;;
70426;SDS011;57872;55.432;37.248;2022-11-15T19:00:36;15.70;;;5.70;;
70426;SDS011;57872;55.432;37.248;2022-11-15T19:05:37;15.40;;;5.70;;
70426;SDS011;57872;55.432;37.248;2022-11-15T19:10:38;12.90;;;5.70;;
70426;SDS011;57872;55.432;37.248;2022-11-15T19:15:39;13.77;;;5.40;;
70426;SDS011;57872;55.432;37.248;2022-11-15T19:20:40;13.40;;;5.93;;
70426;SDS011;57872;55.432;37.248;2022-11-15T19:25:41;14.03;;;5.70;;
70426;SDS011;57872;55.432;37.248;2022-11-15T19:36:36;16.60;;;6.40;;
70426;SDS011;57872;55.432;37.248;2022-11-15T19:41:38;14.87;;;6.63;;
70426;SDS011;57872;55.432;37.248;2022-11-15T19:47:00;18.60;;;6.90;;
70426;SDS011;57872;55.432;37.248;2022-11-15T19:52:01;19.03;;;6.90;;
70426;SDS011;57872;55.432;37.248;2022-11-15T19:57:02;19.37;;;8.63;;
70426;SDS011;57872;55.432;37.248;2022-11-15T20:02:05;18.63;;;7.50;;
70426;SDS011;57872;55.432;37.248;2022-11-15T20:07:06;17.25;;;8.15;;
70426;SDS011;57872;55.432;37.248;2022-11-15T20:12:08;15.53;;;7.37;;
70426;SDS011;57872;55.432;37.248;2022-11-15T20:17:09;17.70;;;8.00;;
70426;SDS011;57872;55.432;37.248;2022-11-15T20:22:10;17.30;;;6.93;;
70426;SDS011;57872;55.432;37.248;2022-11-15T20:27:11;16.67;;;7.53;;
70426;SDS011;57872;55.432;37.248;2022-11-15T20:32:17;15.13;;;7.03;;
70426;SDS011;57872;55.432;37.248;2022-11-15T20:37:34;17.60;;;8.07;;
70426;SDS011;57872;55.432;37.248;2022-11-15T20:42:44;17.33;;;7.60;;
70426;SDS011;57872;55.432;37.248;2022-11-15T20:48:14;16.33;;;7.07;;
70426;SDS011;57872;55.432;37.248;2022-11-15T20:53:37;16.73;;;6.90;;
70426;SDS011;57872;55.432;37.248;2022-11-15T20:58:42;17.33;;;7.53;;
70426;SDS011;57872;55.432;37.248;2022-11-15T21:03:55;15.83;;;7.57;;
70426;SDS011;57872;55.432;37.248;2022-11-15T21:09:17;18.33;;;7.43;;
70426;SDS011;57872;55.432;37.248;2022-11-15T21:20:09;15.87;;;6.97;;
70426;SDS011;57872;55.432;37.248;2022-11-15T21:25:29;17.03;;;6.80;;
70426;SDS011;57872;55.432;37.248;2022-11-15T21:36:23;25.37;;;11.63;;
70426;SDS011;57872;55.432;37.248;2022-11-15T21:41:27;14.98;;;6.60;;
70426;SDS011;57872;55.432;37.248;2022-11-15T21:46:28;15.27;;;6.97;;
70426;SDS011;57872;55.432;37.248;2022-11-15T21:51:29;16.23;;;6.97;;
70426;SDS011;57872;55.432;37.248;2022-11-15T21:56:30;14.47;;;6.37;;
70426;SDS011;57872;55.432;37.248;2022-11-15T22:01:34;21.13;;;7.17;;
70426;SDS011;57872;55.432;37.248;2022-11-15T22:07:08;17.20;;;8.53;;
70426;SDS011;57872;55.432;37.248;2022-11-15T22:12:30;15.33;;;6.83;;
70426;SDS011;57872;55.432;37.248;2022-11-15T22:18:17;14.57;;;6.70;;
70426;SDS011;57872;55.432;37.248;2022-11-15T22:24:11;16.20;;;6.77;;
70426;SDS011;57872;55.432;37.248;2022-11-15T22:29:29;14.77;;;6.50;;
70426;SDS011;57872;55.432;37.248;2022-11-15T22:40:19;18.60;;;7.50;;
70426;SDS011;57872;55.432;37.248;2022-11-15T22:45:19;15.37;;;7.43;;
70426;SDS011;57872;55.432;37.248;2022-11-15T22:50:21;16.13;;;7.40;;
70426;SDS011;57872;55.432;37.248;2022-11-15T22:55:25;18.83;;;7.17;;
70426;SDS011;57872;55.432;37.248;2022-11-15T23:00:28;15.20;;;8.17;;
70426;SDS011;57872;55.432;37.248;2022-11-15T23:05:29;16.83;;;7.90;;
70426;SDS011;57872;55.432;37.248;2022-11-15T23:10:35;16.17;;;7.73;;
70426;SDS011;57872;55.432;37.248;2022-11-15T23:16:15;16.30;;;6.80;;
70426;SDS011;57872;55.432;37.248;2022-11-15T23:21:34;16.10;;;7.53;;
70426;SDS011;57872;55.432;37.248;2022-11-15T23:27:35;15.57;;;8.17;;
70426;SDS011;57872;55.432;37.248;2022-11-15T23:32:37;16.50;;;7.67;;
70426;SDS011;57872;55.432;37.248;2022-11-15T23:38:10;16.50;;;7.40;;
70426;SDS011;57872;55.432;37.248;2022-11-15T23:43:11;19.40;;;7.28;;
70426;SDS011;57872;55.432;37.248;2022-11-15T23:48:14;19.10;;;7.95;;
70426;SDS011;57872;55.432;37.248;2022-11-15T23:53:15;18.47;;;8.10;;
70426;SDS011;57872;55.432;37.248;2022-11-15T23:58:16;17.30;;;7.90;;
